sensor_id;sensor_type;location;lat;lon;timestamp;P1;durP1;ratioP1;P2;durP2;ratioP2
17965;SDS011;9108;53.204;10.424;2022-12-29T00:02:12;6.45;;;3.85;;
17965;SDS011;9108;53.204;10.424;2022-12-29T00:04:41;7.03;;;3.95;;
17965;SDS011;9108;53.204;10.424;2022-12-29T00:07:08;8.10;;;3.75;;
17965;SDS011;9108;53.204;10.424;2022-12-29T00:09:35;8.07;;;4.03;;
17965;SDS011;9108;53.204;10.424;2022-12-29T00:12:03;8.80;;;4.20;;
17965;SDS011;9108;53.204;10.424;2022-12-29T00:14:30;8.77;;;4.07;;
17965;SDS011;9108;53.204;10.424;2022-12-29T00:17:15;7.43;;;4.30;;
17965;SDS011;9108;53.204;10.424;2022-12-29T00:19:44;6.83;;;4.23;;
17965;SDS011;9108;53.204;10.424;2022-12-29T00:22:29;7.82;;;4.10;;
17965;SDS011;9108;53.204;10.424;2022-12-29T00:25:13;8.52;;;4.30;;
17965;SDS011;9108;53.204;10.424;2022-12-29T00:28:13;7.20;;;4.40;;
17965;SDS011;9108;53.204;10.424;2022-12-29T00:30:58;8.10;;;4.07;;
17965;SDS011;9108;53.204;10.424;2022-12-29T00:33:43;9.35;;;3.95;;
17965;SDS011;9108;53.204;10.424;2022-12-29T00:36:30;9.65;;;4.22;;
17965;SDS011;9108;53.204;10.424;2022-12-29T00:38:59;7.40;;;4.00;;
17965;SDS011;9108;53.204;10.424;2022-12-29T00:41:45;8.07;;;4.30;;
17965;SDS011;9108;53.204;10.424;2022-12-29T00:44:30;6.82;;;4.03;;
17965;SDS011;9108;53.204;10.424;2022-12-29T00:46:57;7.65;;;4.07;;
17965;SDS011;9108;53.204;10.424;2022-12-29T00:49:27;7.60;;;3.83;;
17965;SDS011;9108;53.204;10.424;2022-12-29T00:51:58;5.82;;;3.60;;
17965;SDS011;9108;53.204;10.424;2022-12-29T00:54:26;7.28;;;3.70;;
17965;SDS011;9108;53.204;10.424;2022-12-29T00:56:53;5.43;;;3.47;;
17965;SDS011;9108;53.204;10.424;2022-12-29T00:59:20;7.43;;;3.63;;
17965;SDS011;9108;53.204;10.424;2022-12-29T01:01:49;7.80;;;3.80;;
17965;SDS011;9108;53.204;10.424;2022-12-29T01:04:16;6.23;;;3.60;;
17965;SDS011;9108;53.204;10.424;2022-12-29T01:06:47;6.28;;;3.70;;
17965;SDS011;9108;53.204;10.424;2022-12-29T01:09:16;5.43;;;3.38;;
17965;SDS011;9108;53.204;10.424;2022-12-29T01:12:01;7.22;;;3.50;;
17965;SDS011;9108;53.204;10.424;2022-12-29T01:14:28;6.65;;;3.55;;
17965;SDS011;9108;53.204;10.424;2022-12-29T01:16:56;5.85;;;3.20;;
17965;SDS011;9108;53.204;10.424;2022-12-29T01:19:23;7.10;;;3.28;;
17965;SDS011;9108;53.204;10.424;2022-12-29T01:21:50;6.55;;;3.15;;
17965;SDS011;9108;53.204;10.424;2022-12-29T01:24:21;7.85;;;3.10;;
17965;SDS011;9108;53.204;10.424;2022-12-29T01:26:49;6.70;;;3.00;;
17965;SDS011;9108;53.204;10.424;2022-12-29T01:29:16;5.07;;;2.88;;
17965;SDS011;9108;53.204;10.424;2022-12-29T01:31:43;6.13;;;2.65;;
17965;SDS011;9108;53.204;10.424;2022-12-29T01:34:10;6.93;;;2.80;;
17965;SDS011;9108;53.204;10.424;2022-12-29T01:36:38;4.18;;;2.80;;
17965;SDS011;9108;53.204;10.424;2022-12-29T01:39:05;5.15;;;2.50;;
17965;SDS011;9108;53.204;10.424;2022-12-29T01:41:33;7.20;;;2.63;;
17965;SDS011;9108;53.204;10.424;2022-12-29T01:44:00;5.63;;;2.50;;
17965;SDS011;9108;53.204;10.424;2022-12-29T01:46:28;4.40;;;2.67;;
17965;SDS011;9108;53.204;10.424;2022-12-29T01:48:57;4.63;;;2.33;;
17965;SDS011;9108;53.204;10.424;2022-12-29T01:51:25;4.50;;;2.47;;
17965;SDS011;9108;53.204;10.424;2022-12-29T01:53:53;4.40;;;2.33;;
17965;SDS011;9108;53.204;10.424;2022-12-29T01:56:21;4.65;;;2.22;;
17965;SDS011;9108;53.204;10.424;2022-12-29T01:58:50;4.22;;;2.08;;
17965;SDS011;9108;53.204;10.424;2022-12-29T02:01:20;4.13;;;2.20;;
17965;SDS011;9108;53.204;10.424;2022-12-29T02:03:48;3.45;;;2.20;;
17965;SDS011;9108;53.204;10.424;2022-12-29T02:06:16;4.50;;;2.30;;
17965;SDS011;9108;53.204;10.424;2022-12-29T02:08:45;3.22;;;2.10;;
17965;SDS011;9108;53.204;10.424;2022-12-29T02:11:13;5.50;;;2.17;;
17965;SDS011;9108;53.204;10.424;2022-12-29T02:13:40;3.80;;;2.00;;
17965;SDS011;9108;53.204;10.424;2022-12-29T02:16:12;3.90;;;2.00;;
17965;SDS011;9108;53.204;10.424;2022-12-29T02:18:45;3.42;;;2.20;;
17965;SDS011;9108;53.204;10.424;2022-12-29T02:26:57;5.97;;;2.05;;
17965;SDS011;9108;53.204;10.424;2022-12-29T02:29:41;4.70;;;1.90;;
17965;SDS011;9108;53.204;10.424;2022-12-29T02:32:15;3.00;;;2.00;;
17965;SDS011;9108;53.204;10.424;2022-12-29T02:34:46;4.68;;;2.08;;
17965;SDS011;9108;53.204;10.424;2022-12-29T02:37:17;3.28;;;1.70;;
17965;SDS011;9108;53.204;10.424;2022-12-29T02:39:48;4.43;;;1.83;;
17965;SDS011;9108;53.204;10.424;2022-12-29T02:42:20;4.97;;;2.00;;
17965;SDS011;9108;53.204;10.424;2022-12-29T02:44:51;4.18;;;2.17;;
17965;SDS011;9108;53.204;10.424;2022-12-29T02:47:23;5.00;;;1.75;;
17965;SDS011;9108;53.204;10.424;2022-12-29T02:49:56;7.28;;;1.80;;
17965;SDS011;9108;53.204;10.424;2022-12-29T02:52:26;3.15;;;1.60;;
17965;SDS011;9108;53.204;10.424;2022-12-29T02:54:54;3.35;;;1.70;;
17965;SDS011;9108;53.204;10.424;2022-12-29T02:57:31;2.67;;;1.52;;
17965;SDS011;9108;53.204;10.424;2022-12-29T03:00:00;3.45;;;1.67;;
17965;SDS011;9108;53.204;10.424;2022-12-29T03:02:37;3.53;;;1.67;;
17965;SDS011;9108;53.204;10.424;2022-12-29T03:05:16;3.28;;;1.60;;
17965;SDS011;9108;53.204;10.424;2022-12-29T03:07:46;3.63;;;1.63;;
17965;SDS011;9108;53.204;10.424;2022-12-29T03:10:19;3.55;;;1.70;;
17965;SDS011;9108;53.204;10.424;2022-12-29T03:12:48;3.45;;;1.50;;
17965;SDS011;9108;53.204;10.424;2022-12-29T03:15:39;5.03;;;1.65;;
17965;SDS011;9108;53.204;10.424;2022-12-29T03:18:30;4.30;;;1.77;;
17965;SDS011;9108;53.204;10.424;2022-12-29T03:21:02;4.07;;;1.50;;
17965;SDS011;9108;53.204;10.424;2022-12-29T03:23:32;3.80;;;1.60;;
17965;SDS011;9108;53.204;10.424;2022-12-29T03:26:00;2.97;;;1.30;;
17965;SDS011;9108;53.204;10.424;2022-12-29T03:28:29;4.20;;;1.50;;
17965;SDS011;9108;53.204;10.424;2022-12-29T03:30:57;2.90;;;1.40;;
17965;SDS011;9108;53.204;10.424;2022-12-29T03:33:27;3.83;;;1.50;;
17965;SDS011;9108;53.204;10.424;2022-12-29T03:35:57;2.58;;;1.30;;
17965;SDS011;9108;53.204;10.424;2022-12-29T03:38:27;2.78;;;1.35;;
17965;SDS011;9108;53.204;10.424;2022-12-29T03:40:56;2.10;;;1.30;;
17965;SDS011;9108;53.204;10.424;2022-12-29T03:43:25;3.08;;;1.30;;
17965;SDS011;9108;53.204;10.424;2022-12-29T03:45:52;2.20;;;1.30;;
17965;SDS011;9108;53.204;10.424;2022-12-29T03:48:19;3.15;;;1.30;;
17965;SDS011;9108;53.204;10.424;2022-12-29T03:50:46;3.53;;;1.70;;
17965;SDS011;9108;53.204;10.424;2022-12-29T03:53:15;2.83;;;1.40;;
17965;SDS011;9108;53.204;10.424;2022-12-29T03:55:42;2.30;;;1.50;;
17965;SDS011;9108;53.204;10.424;2022-12-29T03:58:09;3.03;;;1.48;;
17965;SDS011;9108;53.204;10.424;2022-12-29T04:00:36;3.73;;;1.53;;
17965;SDS011;9108;53.204;10.424;2022-12-29T04:03:04;2.35;;;1.33;;
17965;SDS011;9108;53.204;10.424;2022-12-29T04:05:31;3.10;;;1.48;;
17965;SDS011;9108;53.204;10.424;2022-12-29T04:07:58;2.05;;;1.42;;
17965;SDS011;9108;53.204;10.424;2022-12-29T04:10:26;2.63;;;1.40;;
17965;SDS011;9108;53.204;10.424;2022-12-29T04:12:53;4.10;;;1.53;;
17965;SDS011;9108;53.204;10.424;2022-12-29T04:15:20;3.38;;;1.50;;
17965;SDS011;9108;53.204;10.424;2022-12-29T04:17:49;2.88;;;1.30;;
17965;SDS011;9108;53.204;10.424;2022-12-29T04:20:16;2.40;;;1.37;;
17965;SDS011;9108;53.204;10.424;2022-12-29T04:23:01;4.78;;;1.42;;
17965;SDS011;9108;53.204;10.424;2022-12-29T04:25:30;4.72;;;1.55;;
17965;SDS011;9108;53.204;10.424;2022-12-29T04:27:57;3.60;;;1.60;;
17965;SDS011;9108;53.204;10.424;2022-12-29T04:30:24;2.70;;;1.58;;
17965;SDS011;9108;53.204;10.424;2022-12-29T04:32:52;3.85;;;1.63;;
17965;SDS011;9108;53.204;10.424;2022-12-29T04:35:19;2.43;;;1.47;;
17965;SDS011;9108;53.204;10.424;2022-12-29T04:37:46;4.22;;;1.55;;
17965;SDS011;9108;53.204;10.424;2022-12-29T04:40:13;4.07;;;1.50;;
17965;SDS011;9108;53.204;10.424;2022-12-29T04:42:42;5.63;;;1.60;;
17965;SDS011;9108;53.204;10.424;2022-12-29T04:45:09;2.55;;;1.52;;
17965;SDS011;9108;53.204;10.424;2022-12-29T04:47:37;4.00;;;1.83;;
17965;SDS011;9108;53.204;10.424;2022-12-29T04:50:04;2.95;;;1.70;;
17965;SDS011;9108;53.204;10.424;2022-12-29T04:52:31;4.20;;;1.70;;
17965;SDS011;9108;53.204;10.424;2022-12-29T04:54:58;3.40;;;1.60;;
17965;SDS011;9108;53.204;10.424;2022-12-29T04:57:25;4.90;;;1.70;;
17965;SDS011;9108;53.204;10.424;2022-12-29T04:59:54;5.15;;;1.80;;
17965;SDS011;9108;53.204;10.424;2022-12-29T05:02:21;3.53;;;1.80;;
17965;SDS011;9108;53.204;10.424;2022-12-29T05:04:48;5.93;;;2.10;;
17965;SDS011;9108;53.204;10.424;2022-12-29T05:07:15;3.22;;;1.60;;
17965;SDS011;9108;53.204;10.424;2022-12-29T05:09:42;3.40;;;1.80;;
17965;SDS011;9108;53.204;10.424;2022-12-29T05:12:09;4.30;;;1.70;;
17965;SDS011;9108;53.204;10.424;2022-12-29T05:14:36;3.38;;;1.80;;
17965;SDS011;9108;53.204;10.424;2022-12-29T05:17:05;3.30;;;1.65;;
17965;SDS011;9108;53.204;10.424;2022-12-29T05:19:32;3.53;;;1.60;;
17965;SDS011;9108;53.204;10.424;2022-12-29T05:21:59;3.03;;;1.60;;
17965;SDS011;9108;53.204;10.424;2022-12-29T05:24:26;2.88;;;1.73;;
17965;SDS011;9108;53.204;10.424;2022-12-29T05:26:53;4.47;;;1.70;;
17965;SDS011;9108;53.204;10.424;2022-12-29T05:29:20;3.67;;;1.70;;
17965;SDS011;9108;53.204;10.424;2022-12-29T05:31:48;2.75;;;1.55;;
17965;SDS011;9108;53.204;10.424;2022-12-29T05:34:16;2.53;;;1.67;;
17965;SDS011;9108;53.204;10.424;2022-12-29T05:36:43;4.00;;;1.52;;
17965;SDS011;9108;53.204;10.424;2022-12-29T05:39:10;5.40;;;1.70;;
17965;SDS011;9108;53.204;10.424;2022-12-29T05:41:37;2.85;;;1.40;;
17965;SDS011;9108;53.204;10.424;2022-12-29T05:44:04;2.70;;;1.60;;
17965;SDS011;9108;53.204;10.424;2022-12-29T05:46:32;3.40;;;1.45;;
17965;SDS011;9108;53.204;10.424;2022-12-29T05:48:59;3.80;;;1.40;;
17965;SDS011;9108;53.204;10.424;2022-12-29T05:51:27;4.20;;;1.67;;
17965;SDS011;9108;53.204;10.424;2022-12-29T05:53:54;2.65;;;1.40;;
17965;SDS011;9108;53.204;10.424;2022-12-29T05:56:21;1.95;;;1.33;;
17965;SDS011;9108;53.204;10.424;2022-12-29T05:58:49;2.50;;;1.40;;
17965;SDS011;9108;53.204;10.424;2022-12-29T06:01:16;2.53;;;1.50;;
17965;SDS011;9108;53.204;10.424;2022-12-29T06:03:43;3.75;;;1.50;;
17965;SDS011;9108;53.204;10.424;2022-12-29T06:06:10;2.25;;;1.50;;
17965;SDS011;9108;53.204;10.424;2022-12-29T06:08:39;2.47;;;1.45;;
17965;SDS011;9108;53.204;10.424;2022-12-29T06:11:06;2.30;;;1.30;;
17965;SDS011;9108;53.204;10.424;2022-12-29T06:13:33;3.38;;;1.40;;
17965;SDS011;9108;53.204;10.424;2022-12-29T06:16:00;3.50;;;1.30;;
17965;SDS011;9108;53.204;10.424;2022-12-29T06:18:27;2.20;;;1.40;;
17965;SDS011;9108;53.204;10.424;2022-12-29T06:20:58;2.53;;;1.20;;
17965;SDS011;9108;53.204;10.424;2022-12-29T06:23:26;2.05;;;1.17;;
17965;SDS011;9108;53.204;10.424;2022-12-29T06:25:54;2.15;;;1.17;;
17965;SDS011;9108;53.204;10.424;2022-12-29T06:28:22;1.80;;;1.00;;
17965;SDS011;9108;53.204;10.424;2022-12-29T06:30:49;3.00;;;1.17;;
17965;SDS011;9108;53.204;10.424;2022-12-29T06:33:16;2.10;;;1.00;;
17965;SDS011;9108;53.204;10.424;2022-12-29T06:35:44;1.70;;;1.05;;
17965;SDS011;9108;53.204;10.424;2022-12-29T06:38:11;2.63;;;1.17;;
17965;SDS011;9108;53.204;10.424;2022-12-29T06:40:39;2.90;;;1.00;;
17965;SDS011;9108;53.204;10.424;2022-12-29T06:43:07;1.55;;;1.00;;
17965;SDS011;9108;53.204;10.424;2022-12-29T06:45:34;2.55;;;1.02;;
17965;SDS011;9108;53.204;10.424;2022-12-29T06:48:01;2.10;;;1.00;;
17965;SDS011;9108;53.204;10.424;2022-12-29T06:50:28;1.90;;;0.88;;
17965;SDS011;9108;53.204;10.424;2022-12-29T06:52:56;2.45;;;0.90;;
17965;SDS011;9108;53.204;10.424;2022-12-29T06:55:23;1.77;;;0.80;;
17965;SDS011;9108;53.204;10.424;2022-12-29T06:57:50;1.80;;;0.80;;
17965;SDS011;9108;53.204;10.424;2022-12-29T07:00:18;3.00;;;0.90;;
17965;SDS011;9108;53.204;10.424;2022-12-29T07:02:46;1.10;;;0.70;;
17965;SDS011;9108;53.204;10.424;2022-12-29T07:05:13;2.07;;;0.90;;
17965;SDS011;9108;53.204;10.424;2022-12-29T07:07:40;2.50;;;0.80;;
17965;SDS011;9108;53.204;10.424;2022-12-29T07:10:07;2.63;;;0.80;;
17965;SDS011;9108;53.204;10.424;2022-12-29T07:12:34;1.45;;;0.70;;
17965;SDS011;9108;53.204;10.424;2022-12-29T07:15:01;3.03;;;0.60;;
17965;SDS011;9108;53.204;10.424;2022-12-29T07:17:30;1.55;;;0.80;;
17965;SDS011;9108;53.204;10.424;2022-12-29T07:19:57;1.60;;;0.60;;
17965;SDS011;9108;53.204;10.424;2022-12-29T07:22:24;2.92;;;0.70;;
17965;SDS011;9108;53.204;10.424;2022-12-29T07:24:51;2.10;;;0.70;;
17965;SDS011;9108;53.204;10.424;2022-12-29T07:27:18;2.10;;;0.60;;
17965;SDS011;9108;53.204;10.424;2022-12-29T07:29:45;1.88;;;0.65;;
17965;SDS011;9108;53.204;10.424;2022-12-29T07:32:12;2.95;;;0.80;;
17965;SDS011;9108;53.204;10.424;2022-12-29T07:34:41;1.52;;;0.80;;
17965;SDS011;9108;53.204;10.424;2022-12-29T07:37:10;1.88;;;0.80;;
17965;SDS011;9108;53.204;10.424;2022-12-29T07:39:39;1.30;;;0.70;;
17965;SDS011;9108;53.204;10.424;2022-12-29T07:42:06;1.95;;;0.63;;
17965;SDS011;9108;53.204;10.424;2022-12-29T07:44:33;3.38;;;1.00;;
17965;SDS011;9108;53.204;10.424;2022-12-29T07:47:01;2.33;;;0.63;;
17965;SDS011;9108;53.204;10.424;2022-12-29T07:49:32;1.58;;;0.68;;
17965;SDS011;9108;53.204;10.424;2022-12-29T07:52:11;1.80;;;0.80;;
17965;SDS011;9108;53.204;10.424;2022-12-29T07:54:38;3.20;;;1.00;;
17965;SDS011;9108;53.204;10.424;2022-12-29T07:57:05;1.42;;;0.73;;
17965;SDS011;9108;53.204;10.424;2022-12-29T07:59:33;1.50;;;0.50;;
17965;SDS011;9108;53.204;10.424;2022-12-29T08:02:00;1.90;;;0.50;;
17965;SDS011;9108;53.204;10.424;2022-12-29T08:04:27;2.58;;;0.73;;
17965;SDS011;9108;53.204;10.424;2022-12-29T08:06:54;2.03;;;0.80;;
17965;SDS011;9108;53.204;10.424;2022-12-29T08:09:23;2.50;;;1.00;;
17965;SDS011;9108;53.204;10.424;2022-12-29T08:11:50;2.75;;;0.50;;
17965;SDS011;9108;53.204;10.424;2022-12-29T08:14:28;0.95;;;0.50;;
17965;SDS011;9108;53.204;10.424;2022-12-29T08:17:01;2.13;;;0.50;;
17965;SDS011;9108;53.204;10.424;2022-12-29T08:19:28;4.60;;;0.55;;
17965;SDS011;9108;53.204;10.424;2022-12-29T08:21:55;1.60;;;0.57;;
17965;SDS011;9108;53.204;10.424;2022-12-29T08:24:24;1.42;;;0.40;;
17965;SDS011;9108;53.204;10.424;2022-12-29T08:26:51;2.30;;;0.43;;
17965;SDS011;9108;53.204;10.424;2022-12-29T08:29:18;2.65;;;0.70;;
17965;SDS011;9108;53.204;10.424;2022-12-29T08:31:46;1.93;;;0.37;;
17965;SDS011;9108;53.204;10.424;2022-12-29T08:34:13;1.70;;;0.40;;
17965;SDS011;9108;53.204;10.424;2022-12-29T08:36:40;2.10;;;0.50;;
17965;SDS011;9108;53.204;10.424;2022-12-29T08:39:08;2.20;;;0.40;;
17965;SDS011;9108;53.204;10.424;2022-12-29T08:41:36;2.23;;;0.50;;
17965;SDS011;9108;53.204;10.424;2022-12-29T08:44:04;1.77;;;0.32;;
17965;SDS011;9108;53.204;10.424;2022-12-29T08:46:33;2.80;;;0.60;;
17965;SDS011;9108;53.204;10.424;2022-12-29T08:49:00;1.85;;;0.38;;
17965;SDS011;9108;53.204;10.424;2022-12-29T08:51:27;1.93;;;0.40;;
17965;SDS011;9108;53.204;10.424;2022-12-29T08:53:54;1.42;;;0.30;;
17965;SDS011;9108;53.204;10.424;2022-12-29T08:56:21;1.83;;;0.30;;
17965;SDS011;9108;53.204;10.424;2022-12-29T08:58:51;1.40;;;0.30;;
17965;SDS011;9108;53.204;10.424;2022-12-29T09:01:20;2.40;;;0.38;;
17965;SDS011;9108;53.204;10.424;2022-12-29T09:03:47;1.65;;;0.35;;
17965;SDS011;9108;53.204;10.424;2022-12-29T09:06:14;1.92;;;0.30;;
17965;SDS011;9108;53.204;10.424;2022-12-29T09:08:42;1.23;;;0.28;;
17965;SDS011;9108;53.204;10.424;2022-12-29T09:11:10;1.73;;;0.30;;
17965;SDS011;9108;53.204;10.424;2022-12-29T09:13:37;2.35;;;0.30;;
17965;SDS011;9108;53.204;10.424;2022-12-29T09:16:06;2.22;;;0.40;;
17965;SDS011;9108;53.204;10.424;2022-12-29T09:18:33;2.45;;;0.30;;
17965;SDS011;9108;53.204;10.424;2022-12-29T09:21:01;2.28;;;0.40;;
17965;SDS011;9108;53.204;10.424;2022-12-29T09:23:29;1.58;;;0.40;;
17965;SDS011;9108;53.204;10.424;2022-12-29T09:25:56;2.10;;;0.52;;
17965;SDS011;9108;53.204;10.424;2022-12-29T09:28:23;2.53;;;0.43;;
17965;SDS011;9108;53.204;10.424;2022-12-29T09:30:51;2.65;;;0.50;;
17965;SDS011;9108;53.204;10.424;2022-12-29T09:33:19;1.67;;;0.50;;
17965;SDS011;9108;53.204;10.424;2022-12-29T09:35:50;1.55;;;0.40;;
17965;SDS011;9108;53.204;10.424;2022-12-29T09:38:17;3.00;;;0.60;;
17965;SDS011;9108;53.204;10.424;2022-12-29T09:40:45;1.58;;;0.50;;
17965;SDS011;9108;53.204;10.424;2022-12-29T09:43:23;1.80;;;0.55;;
17965;SDS011;9108;53.204;10.424;2022-12-29T09:45:55;3.05;;;0.57;;
17965;SDS011;9108;53.204;10.424;2022-12-29T09:48:29;4.32;;;0.60;;
17965;SDS011;9108;53.204;10.424;2022-12-29T09:50:57;3.38;;;0.88;;
17965;SDS011;9108;53.204;10.424;2022-12-29T09:53:27;3.38;;;0.70;;
17965;SDS011;9108;53.204;10.424;2022-12-29T09:55:56;2.63;;;0.52;;
17965;SDS011;9108;53.204;10.424;2022-12-29T09:58:24;2.22;;;0.47;;
17965;SDS011;9108;53.204;10.424;2022-12-29T10:00:56;2.43;;;0.70;;
17965;SDS011;9108;53.204;10.424;2022-12-29T10:03:27;4.07;;;0.70;;
17965;SDS011;9108;53.204;10.424;2022-12-29T10:06:01;3.90;;;0.70;;
17965;SDS011;9108;53.204;10.424;2022-12-29T10:08:34;5.43;;;0.73;;
17965;SDS011;9108;53.204;10.424;2022-12-29T10:11:05;4.10;;;0.70;;
17965;SDS011;9108;53.204;10.424;2022-12-29T10:13:40;4.57;;;0.75;;
17965;SDS011;9108;53.204;10.424;2022-12-29T10:16:11;3.13;;;0.75;;
17965;SDS011;9108;53.204;10.424;2022-12-29T10:18:46;5.15;;;1.00;;
17965;SDS011;9108;53.204;10.424;2022-12-29T10:21:17;5.00;;;0.70;;
17965;SDS011;9108;53.204;10.424;2022-12-29T10:23:48;4.15;;;0.88;;
17965;SDS011;9108;53.204;10.424;2022-12-29T10:26:17;4.88;;;0.85;;
17965;SDS011;9108;53.204;10.424;2022-12-29T10:28:46;3.70;;;0.80;;
17965;SDS011;9108;53.204;10.424;2022-12-29T10:31:16;6.22;;;1.00;;
17965;SDS011;9108;53.204;10.424;2022-12-29T10:33:46;4.88;;;0.90;;
17965;SDS011;9108;53.204;10.424;2022-12-29T10:36:17;4.07;;;0.82;;
17965;SDS011;9108;53.204;10.424;2022-12-29T10:38:47;5.97;;;0.88;;
17965;SDS011;9108;53.204;10.424;2022-12-29T10:41:17;5.43;;;1.00;;
17965;SDS011;9108;53.204;10.424;2022-12-29T10:43:45;6.45;;;0.90;;
17965;SDS011;9108;53.204;10.424;2022-12-29T10:46:14;3.85;;;0.80;;
17965;SDS011;9108;53.204;10.424;2022-12-29T10:48:42;6.20;;;1.00;;
17965;SDS011;9108;53.204;10.424;2022-12-29T10:51:16;5.85;;;1.00;;
17965;SDS011;9108;53.204;10.424;2022-12-29T10:53:46;7.05;;;1.30;;
17965;SDS011;9108;53.204;10.424;2022-12-29T10:56:17;6.72;;;0.95;;
17965;SDS011;9108;53.204;10.424;2022-12-29T10:58:48;6.32;;;0.90;;
17965;SDS011;9108;53.204;10.424;2022-12-29T11:01:15;5.13;;;1.20;;
17965;SDS011;9108;53.204;10.424;2022-12-29T11:03:50;5.72;;;1.10;;
17965;SDS011;9108;53.204;10.424;2022-12-29T11:06:23;3.97;;;0.70;;
17965;SDS011;9108;53.204;10.424;2022-12-29T11:08:52;6.72;;;1.05;;
17965;SDS011;9108;53.204;10.424;2022-12-29T11:11:23;5.38;;;0.90;;
17965;SDS011;9108;53.204;10.424;2022-12-29T11:13:55;5.75;;;0.85;;
17965;SDS011;9108;53.204;10.424;2022-12-29T11:16:29;5.45;;;1.10;;
17965;SDS011;9108;53.204;10.424;2022-12-29T11:18:57;6.20;;;0.90;;
17965;SDS011;9108;53.204;10.424;2022-12-29T11:21:31;7.75;;;1.10;;
17965;SDS011;9108;53.204;10.424;2022-12-29T11:23:59;6.87;;;1.00;;
17965;SDS011;9108;53.204;10.424;2022-12-29T11:26:26;6.57;;;0.93;;
17965;SDS011;9108;53.204;10.424;2022-12-29T11:29:05;7.80;;;1.17;;
17965;SDS011;9108;53.204;10.424;2022-12-29T11:31:39;7.55;;;1.23;;
17965;SDS011;9108;53.204;10.424;2022-12-29T11:34:07;5.15;;;1.00;;
17965;SDS011;9108;53.204;10.424;2022-12-29T11:36:35;6.20;;;1.23;;
17965;SDS011;9108;53.204;10.424;2022-12-29T11:39:02;7.10;;;1.25;;
17965;SDS011;9108;53.204;10.424;2022-12-29T11:41:30;5.97;;;1.00;;
17965;SDS011;9108;53.204;10.424;2022-12-29T11:43:58;7.60;;;1.17;;
17965;SDS011;9108;53.204;10.424;2022-12-29T11:46:27;6.35;;;1.20;;
17965;SDS011;9108;53.204;10.424;2022-12-29T11:48:54;7.88;;;1.10;;
17965;SDS011;9108;53.204;10.424;2022-12-29T11:51:25;6.63;;;0.95;;
17965;SDS011;9108;53.204;10.424;2022-12-29T11:53:56;4.82;;;0.90;;
17965;SDS011;9108;53.204;10.424;2022-12-29T11:56:32;5.88;;;0.80;;
17965;SDS011;9108;53.204;10.424;2022-12-29T12:01:41;7.25;;;1.02;;
17965;SDS011;9108;53.204;10.424;2022-12-29T12:04:10;6.15;;;0.90;;
17965;SDS011;9108;53.204;10.424;2022-12-29T12:06:40;10.55;;;1.40;;
17965;SDS011;9108;53.204;10.424;2022-12-29T12:09:14;7.88;;;1.33;;
17965;SDS011;9108;53.204;10.424;2022-12-29T12:11:42;6.75;;;1.20;;
17965;SDS011;9108;53.204;10.424;2022-12-29T12:14:11;6.47;;;1.10;;
17965;SDS011;9108;53.204;10.424;2022-12-29T12:16:41;5.00;;;1.00;;
17965;SDS011;9108;53.204;10.424;2022-12-29T12:19:13;7.53;;;1.10;;
17965;SDS011;9108;53.204;10.424;2022-12-29T12:21:43;6.97;;;1.10;;
17965;SDS011;9108;53.204;10.424;2022-12-29T12:24:36;9.00;;;1.05;;
17965;SDS011;9108;53.204;10.424;2022-12-29T12:27:08;5.72;;;1.08;;
17965;SDS011;9108;53.204;10.424;2022-12-29T12:29:37;5.78;;;0.90;;
17965;SDS011;9108;53.204;10.424;2022-12-29T12:32:10;6.97;;;1.00;;
17965;SDS011;9108;53.204;10.424;2022-12-29T12:34:38;6.83;;;1.23;;
17965;SDS011;9108;53.204;10.424;2022-12-29T12:37:18;8.00;;;1.10;;
17965;SDS011;9108;53.204;10.424;2022-12-29T12:40:00;11.40;;;1.40;;
17965;SDS011;9108;53.204;10.424;2022-12-29T12:42:35;6.47;;;1.10;;
17965;SDS011;9108;53.204;10.424;2022-12-29T12:45:16;7.20;;;1.05;;
17965;SDS011;9108;53.204;10.424;2022-12-29T12:47:50;8.07;;;1.43;;
17965;SDS011;9108;53.204;10.424;2022-12-29T12:50:26;8.52;;;1.30;;
17965;SDS011;9108;53.204;10.424;2022-12-29T12:53:11;8.63;;;1.20;;
17965;SDS011;9108;53.204;10.424;2022-12-29T12:55:56;6.83;;;1.07;;
17965;SDS011;9108;53.204;10.424;2022-12-29T12:58:27;7.28;;;1.23;;
17965;SDS011;9108;53.204;10.424;2022-12-29T13:01:02;8.05;;;1.20;;
17965;SDS011;9108;53.204;10.424;2022-12-29T13:03:38;6.20;;;1.00;;
17965;SDS011;9108;53.204;10.424;2022-12-29T13:06:11;6.73;;;1.10;;
17965;SDS011;9108;53.204;10.424;2022-12-29T13:08:46;3.97;;;0.90;;
17965;SDS011;9108;53.204;10.424;2022-12-29T13:11:19;6.38;;;1.25;;
17965;SDS011;9108;53.204;10.424;2022-12-29T13:14:01;6.55;;;1.10;;
17965;SDS011;9108;53.204;10.424;2022-12-29T13:16:33;8.02;;;1.33;;
17965;SDS011;9108;53.204;10.424;2022-12-29T13:19:02;6.57;;;1.10;;
17965;SDS011;9108;53.204;10.424;2022-12-29T13:21:34;7.70;;;1.10;;
17965;SDS011;9108;53.204;10.424;2022-12-29T13:24:08;6.50;;;0.90;;
17965;SDS011;9108;53.204;10.424;2022-12-29T13:26:39;5.55;;;0.90;;
17965;SDS011;9108;53.204;10.424;2022-12-29T13:29:12;6.35;;;1.02;;
17965;SDS011;9108;53.204;10.424;2022-12-29T13:31:42;7.70;;;1.13;;
17965;SDS011;9108;53.204;10.424;2022-12-29T13:34:15;6.75;;;1.10;;
17965;SDS011;9108;53.204;10.424;2022-12-29T13:36:46;6.88;;;1.30;;
17965;SDS011;9108;53.204;10.424;2022-12-29T13:39:15;8.83;;;1.33;;
17965;SDS011;9108;53.204;10.424;2022-12-29T13:41:45;5.40;;;1.08;;
17965;SDS011;9108;53.204;10.424;2022-12-29T13:44:15;7.43;;;1.13;;
17965;SDS011;9108;53.204;10.424;2022-12-29T13:46:44;7.30;;;1.10;;
17965;SDS011;9108;53.204;10.424;2022-12-29T13:49:12;8.00;;;1.10;;
17965;SDS011;9108;53.204;10.424;2022-12-29T13:51:41;5.25;;;0.88;;
17965;SDS011;9108;53.204;10.424;2022-12-29T13:54:15;6.68;;;1.15;;
17965;SDS011;9108;53.204;10.424;2022-12-29T13:56:50;7.60;;;1.20;;
17965;SDS011;9108;53.204;10.424;2022-12-29T13:59:21;6.78;;;1.00;;
17965;SDS011;9108;53.204;10.424;2022-12-29T14:01:53;6.72;;;1.00;;
17965;SDS011;9108;53.204;10.424;2022-12-29T14:04:23;5.63;;;1.00;;
17965;SDS011;9108;53.204;10.424;2022-12-29T14:07:00;6.45;;;1.17;;
17965;SDS011;9108;53.204;10.424;2022-12-29T14:09:34;4.22;;;1.05;;
17965;SDS011;9108;53.204;10.424;2022-12-29T14:12:16;5.88;;;1.05;;
17965;SDS011;9108;53.204;10.424;2022-12-29T14:14:45;6.03;;;1.10;;
17965;SDS011;9108;53.204;10.424;2022-12-29T14:17:12;6.47;;;1.20;;
17965;SDS011;9108;53.204;10.424;2022-12-29T14:19:44;4.28;;;1.08;;
17965;SDS011;9108;53.204;10.424;2022-12-29T14:22:12;7.32;;;1.17;;
17965;SDS011;9108;53.204;10.424;2022-12-29T14:24:41;8.77;;;1.40;;
17965;SDS011;9108;53.204;10.424;2022-12-29T14:29:55;7.03;;;1.10;;
17965;SDS011;9108;53.204;10.424;2022-12-29T14:32:35;6.07;;;1.10;;
17965;SDS011;9108;53.204;10.424;2022-12-29T14:37:49;5.10;;;1.10;;
17965;SDS011;9108;53.204;10.424;2022-12-29T14:40:31;7.57;;;1.67;;
17965;SDS011;9108;53.204;10.424;2022-12-29T14:42:59;7.07;;;1.15;;
17965;SDS011;9108;53.204;10.424;2022-12-29T14:45:28;6.80;;;1.30;;
17965;SDS011;9108;53.204;10.424;2022-12-29T14:47:57;6.90;;;1.30;;
17965;SDS011;9108;53.204;10.424;2022-12-29T14:50:33;5.18;;;1.13;;
17965;SDS011;9108;53.204;10.424;2022-12-29T14:53:03;5.70;;;1.23;;
17965;SDS011;9108;53.204;10.424;2022-12-29T14:55:38;3.97;;;1.27;;
17965;SDS011;9108;53.204;10.424;2022-12-29T14:58:06;7.77;;;1.50;;
17965;SDS011;9108;53.204;10.424;2022-12-29T15:00:35;5.85;;;1.10;;
17965;SDS011;9108;53.204;10.424;2022-12-29T15:03:04;5.45;;;1.08;;
17965;SDS011;9108;53.204;10.424;2022-12-29T15:05:33;5.82;;;0.90;;
17965;SDS011;9108;53.204;10.424;2022-12-29T15:08:02;6.63;;;1.08;;
17965;SDS011;9108;53.204;10.424;2022-12-29T15:10:32;7.15;;;1.10;;
17965;SDS011;9108;53.204;10.424;2022-12-29T15:13:02;8.70;;;1.50;;
17965;SDS011;9108;53.204;10.424;2022-12-29T15:15:35;11.32;;;2.40;;
17965;SDS011;9108;53.204;10.424;2022-12-29T15:18:13;9.40;;;1.30;;
17965;SDS011;9108;53.204;10.424;2022-12-29T15:20:40;8.67;;;1.40;;